createdAt,value
2016-02-13T00:00:24.661Z,0
2016-02-13T00:01:24.678Z,0
2016-02-13T00:02:24.666Z,0
2016-02-13T00:03:24.669Z,0
2016-02-13T00:04:24.673Z,0
2016-02-13T00:05:24.659Z,0
2016-02-13T00:06:24.662Z,0
2016-02-13T00:07:24.664Z,0
2016-02-13T00:08:24.698Z,0
2016-02-13T00:09:24.655Z,0
2016-02-13T00:10:24.690Z,0
2016-02-13T00:11:24.661Z,0
2016-02-13T00:12:24.680Z,0
2016-02-13T00:13:24.682Z,0
2016-02-13T00:14:24.669Z,0
2016-02-13T00:15:24.657Z,0
2016-02-13T00:16:24.691Z,0
2016-02-13T00:17:24.646Z,0
2016-02-13T00:18:24.667Z,0
2016-02-13T00:19:24.653Z,0
2016-02-13T00:20:24.640Z,0
2016-02-13T00:21:24.675Z,0
2016-02-13T00:22:24.664Z,0
2016-02-13T00:23:24.651Z,0
2016-02-13T00:24:24.654Z,0
2016-02-13T00:25:24.641Z,0
2016-02-13T00:26:24.674Z,0
2016-02-13T00:27:24.664Z,0
2016-02-13T00:28:24.651Z,0
2016-02-13T00:29:24.638Z,0
2016-02-13T00:30:24.640Z,0
2016-02-13T00:31:24.643Z,0
2016-02-13T00:32:24.646Z,0
2016-02-13T00:33:24.632Z,0
2016-02-13T00:34:24.667Z,0
2016-02-13T00:35:24.623Z,0
2016-02-13T00:36:24.657Z,0
2016-02-13T00:37:24.644Z,0
2016-02-13T00:38:24.632Z,0
2016-02-13T00:39:24.635Z,0
2016-02-13T00:40:24.637Z,0
2016-02-13T00:41:24.655Z,0
2016-02-13T00:42:24.627Z,0
2016-02-13T00:43:24.646Z,0
2016-02-13T00:44:24.617Z,0
2016-02-13T00:45:24.652Z,0
2016-02-13T00:46:24.638Z,0
2016-02-13T00:47:24.657Z,0
2016-02-13T00:48:24.644Z,0
2016-02-13T00:49:24.615Z,0
2016-02-13T00:50:24.633Z,0
2016-02-13T00:51:24.652Z,0
2016-02-13T00:52:24.670Z,0
2016-02-13T00:53:24.627Z,0
2016-02-13T00:54:24.634Z,0
2016-02-13T00:55:24.636Z,0
2016-02-13T00:56:24.628Z,0
2016-02-13T00:57:24.475Z,0
2016-02-13T00:58:24.618Z,0
2016-02-13T00:59:24.620Z,0
2016-02-13T01:00:24.639Z,0
2016-02-13T01:01:24.626Z,0
2016-02-13T01:02:24.647Z,0
2016-02-13T01:03:24.619Z,0
2016-02-13T01:04:24.464Z,0
2016-02-13T01:05:24.655Z,0
2016-02-13T01:06:24.612Z,0
2016-02-13T01:07:24.645Z,0
2016-02-13T01:08:24.601Z,0
2016-02-13T01:09:24.619Z,0
2016-02-13T01:10:24.606Z,0
2016-02-13T01:11:24.656Z,0
2016-02-13T01:12:24.612Z,0
2016-02-13T01:13:24.615Z,0
2016-02-13T01:14:24.617Z,0
2016-02-13T01:15:24.619Z,0
2016-02-13T01:16:24.607Z,0
2016-02-13T01:17:24.625Z,0
2016-02-13T01:18:24.603Z,0
2016-02-13T01:19:24.623Z,0
2016-02-13T01:20:24.609Z,0
2016-02-13T01:21:24.627Z,0
2016-02-13T01:22:24.600Z,0
2016-02-13T01:23:24.603Z,0
2016-02-13T01:24:24.605Z,0
2016-02-13T01:25:24.608Z,0
2016-02-13T01:26:24.627Z,0
2016-02-13T01:27:24.598Z,0
2016-02-13T01:28:24.601Z,0
2016-02-13T01:29:24.619Z,0
2016-02-13T01:30:24.591Z,0
2016-02-13T01:31:24.594Z,0
2016-02-13T01:32:24.597Z,0
2016-02-13T01:33:24.600Z,0
2016-02-13T01:34:24.634Z,0
2016-02-13T01:35:24.589Z,0
2016-02-13T01:36:24.592Z,0
2016-02-13T01:37:24.610Z,0
2016-02-13T01:38:24.597Z,0
2016-02-13T01:39:24.601Z,0
2016-02-13T01:40:24.604Z,0
2016-02-13T01:41:24.622Z,0
2016-02-13T01:42:24.594Z,0
2016-02-13T01:43:24.597Z,0
2016-02-13T01:44:24.631Z,0
2016-02-13T01:45:24.603Z,0
2016-02-13T01:46:24.589Z,0
2016-02-13T01:47:24.591Z,0
2016-02-13T01:48:24.579Z,0
2016-02-13T01:49:24.598Z,0
2016-02-13T01:50:24.584Z,0
2016-02-13T01:51:24.587Z,0
2016-02-13T01:52:24.606Z,0
2016-02-13T01:53:24.608Z,0
2016-02-13T01:54:24.567Z,0
2016-02-13T01:55:24.601Z,0
2016-02-13T01:56:24.573Z,0
2016-02-13T01:57:24.576Z,0
2016-02-13T01:58:24.579Z,0
2016-02-13T01:59:24.598Z,0
2016-02-13T02:00:24.584Z,0
2016-02-13T02:01:24.603Z,0
2016-02-13T02:02:24.590Z,0
2016-02-13T02:03:24.577Z,0
2016-02-13T02:04:24.284Z,0
2016-02-13T02:05:24.569Z,0
2016-02-13T02:06:24.587Z,0
2016-02-13T02:07:24.590Z,0
2016-02-13T02:08:24.577Z,0
2016-02-13T02:09:24.580Z,0
2016-02-13T02:10:24.566Z,0
2016-02-13T02:11:24.585Z,0
2016-02-13T02:12:24.587Z,0
2016-02-13T02:13:24.575Z,0
2016-02-13T02:14:24.562Z,0
2016-02-13T02:15:24.580Z,0
2016-02-13T02:16:24.583Z,0
2016-02-13T02:17:24.585Z,0
2016-02-13T02:18:24.573Z,0
2016-02-13T02:19:24.591Z,0
2016-02-13T02:20:24.562Z,0
2016-02-13T02:21:24.565Z,0
2016-02-13T02:22:24.568Z,0
2016-02-13T02:23:24.558Z,0
2016-02-13T02:24:24.560Z,0
2016-02-13T02:25:24.562Z,0
2016-02-13T02:26:24.583Z,0
2016-02-13T02:27:24.569Z,0
2016-02-13T02:28:24.572Z,0
2016-02-13T02:29:24.541Z,0
2016-02-13T02:30:24.575Z,0
2016-02-13T02:31:24.562Z,0
2016-02-13T02:32:24.580Z,0
2016-02-13T02:33:24.552Z,0
2016-02-13T02:34:24.571Z,0
2016-02-13T02:35:24.557Z,0
2016-02-13T02:36:24.560Z,0
2016-02-13T02:37:24.547Z,0
2016-02-13T02:38:24.566Z,0
2016-02-13T02:39:24.552Z,0
2016-02-13T02:40:24.555Z,0
2016-02-13T02:41:24.573Z,0
2016-02-13T02:42:24.544Z,0
2016-02-13T02:43:24.550Z,0
2016-02-13T02:44:24.567Z,0
2016-02-13T02:45:24.602Z,0
2016-02-13T02:46:24.558Z,0
2016-02-13T02:47:24.544Z,0
2016-02-13T02:48:24.578Z,0
2016-02-13T02:49:24.534Z,0
2016-02-13T02:50:24.568Z,0
2016-02-13T02:51:24.539Z,0
2016-02-13T02:52:24.527Z,0
2016-02-13T02:53:24.545Z,0
2016-02-13T02:54:24.548Z,0
2016-02-13T02:55:24.553Z,0
2016-02-13T02:56:24.540Z,0
2016-02-13T02:57:24.543Z,0
2016-02-13T02:58:24.561Z,0
2016-02-13T02:59:24.564Z,0
2016-02-13T03:00:24.535Z,0
2016-02-13T03:01:24.555Z,0
2016-02-13T03:02:24.541Z,0
2016-02-13T03:03:24.529Z,0
2016-02-13T03:04:24.532Z,0
2016-02-13T03:05:24.519Z,0
2016-02-13T03:06:24.536Z,0
2016-02-13T03:07:24.524Z,0
2016-02-13T03:08:24.527Z,0
2016-02-13T03:09:24.531Z,0
2016-02-13T03:10:24.565Z,0
2016-02-13T03:11:24.536Z,0
2016-02-13T03:12:24.539Z,0
2016-02-13T03:13:24.525Z,0
2016-02-13T03:14:24.548Z,0
2016-02-13T03:15:24.518Z,0
2016-02-13T03:16:24.552Z,0
2016-02-13T03:17:24.508Z,0
2016-02-13T03:18:24.528Z,0
2016-02-13T03:19:24.515Z,0
2016-02-13T03:20:24.352Z,0
2016-02-13T03:21:24.512Z,0
2016-02-13T03:22:24.515Z,0
2016-02-13T03:23:24.533Z,0
2016-02-13T03:24:24.519Z,0
2016-02-13T03:25:24.538Z,0
2016-02-13T03:26:24.527Z,0
2016-02-13T03:27:24.515Z,0
2016-02-13T03:28:24.517Z,0
2016-02-13T03:29:24.520Z,0
2016-02-13T03:30:24.522Z,0
2016-02-13T03:31:24.511Z,0
2016-02-13T03:32:24.544Z,0
2016-02-13T03:33:24.500Z,0
2016-02-13T03:34:24.502Z,0
2016-02-13T03:35:24.521Z,0
2016-02-13T03:36:24.492Z,0
2016-02-13T03:37:24.605Z,0
2016-02-13T03:38:24.513Z,0
2016-02-13T03:39:24.375Z,0
2016-02-13T03:40:24.488Z,0
2016-02-13T03:41:24.491Z,0
2016-02-13T03:42:24.504Z,0
2016-02-13T03:43:24.480Z,0
2016-02-13T03:44:24.470Z,0
2016-02-13T03:45:24.475Z,0
2016-02-13T03:46:24.452Z,0
2016-02-13T03:47:24.447Z,0
2016-02-13T03:48:24.430Z,0
2016-02-13T03:49:24.475Z,0
2016-02-13T03:50:24.411Z,0
2016-02-13T03:51:24.410Z,0
2016-02-13T03:52:24.424Z,0
2016-02-13T03:53:24.411Z,0
2016-02-13T03:54:24.427Z,0
2016-02-13T03:55:24.397Z,0
2016-02-13T03:56:24.398Z,0
2016-02-13T03:57:24.399Z,0
2016-02-13T03:58:24.433Z,0
2016-02-13T03:59:24.389Z,0
2016-02-13T04:00:24.406Z,0
2016-02-13T04:01:24.392Z,0
2016-02-13T04:02:24.394Z,0
2016-02-13T04:03:24.397Z,0
2016-02-13T04:04:24.386Z,0
2016-02-13T04:05:24.420Z,0
2016-02-13T04:06:24.375Z,0
2016-02-13T04:07:24.463Z,0
2016-02-13T04:08:24.379Z,0
2016-02-13T04:09:28.821Z,0
2016-02-13T04:10:24.485Z,0
2016-02-13T04:11:24.472Z,0
2016-02-13T04:12:24.396Z,0
2016-02-13T04:13:24.602Z,0
2016-02-13T04:14:24.385Z,0
2016-02-13T04:15:24.404Z,0
2016-02-13T04:16:24.377Z,0
2016-02-13T04:17:24.394Z,0
2016-02-13T04:18:24.381Z,0
2016-02-13T04:19:24.389Z,0
2016-02-13T04:20:24.376Z,0
2016-02-13T04:21:24.395Z,0
2016-02-13T04:22:24.365Z,0
2016-02-13T04:23:24.384Z,0
2016-02-13T04:24:24.371Z,0
2016-02-13T04:25:24.359Z,0
2016-02-13T04:26:24.392Z,0
2016-02-13T04:27:24.364Z,0
2016-02-13T04:28:24.366Z,0
2016-02-13T04:29:24.367Z,0
2016-02-13T04:30:24.369Z,0
2016-02-13T04:31:24.231Z,0
2016-02-13T04:32:24.360Z,0
2016-02-13T04:33:24.394Z,0
2016-02-13T04:34:24.349Z,0
2016-02-13T04:35:24.352Z,0
2016-02-13T04:36:24.371Z,0
2016-02-13T04:37:24.357Z,0
2016-02-13T04:38:24.360Z,0
2016-02-13T04:39:24.380Z,0
2016-02-13T04:40:24.367Z,0
2016-02-13T04:41:24.369Z,0
2016-02-13T04:42:24.389Z,0
2016-02-13T04:43:24.345Z,0
2016-02-13T04:44:24.348Z,0
2016-02-13T04:45:24.350Z,0
2016-02-13T04:46:24.353Z,0
2016-02-13T04:47:24.355Z,0
2016-02-13T04:48:24.361Z,0
2016-02-13T04:49:24.207Z,0
2016-02-13T04:50:24.366Z,0
2016-02-13T04:51:24.339Z,0
2016-02-13T04:52:24.373Z,0
2016-02-13T04:53:24.344Z,0
2016-02-13T04:54:24.379Z,0
2016-02-13T04:55:24.350Z,0
2016-02-13T04:56:24.400Z,0
2016-02-13T04:57:24.355Z,0
2016-02-13T04:58:24.344Z,0
2016-02-13T04:59:24.346Z,0
2016-02-13T05:00:24.351Z,0
2016-02-13T05:01:24.337Z,0
2016-02-13T05:02:24.372Z,0
2016-02-13T05:03:24.374Z,0
2016-02-13T05:04:24.393Z,0
2016-02-13T05:05:24.333Z,0
2016-02-13T05:06:24.336Z,0
2016-02-13T05:07:24.338Z,0
2016-02-13T05:08:24.328Z,0
2016-02-13T05:09:24.347Z,0
2016-02-13T05:10:24.333Z,0
2016-02-13T05:11:24.352Z,0
2016-02-13T05:12:24.324Z,0
2016-02-13T05:13:24.326Z,0
2016-02-13T05:14:24.329Z,0
2016-02-13T05:15:24.347Z,0
2016-02-13T05:16:24.318Z,0
2016-02-13T05:17:24.338Z,0
2016-02-13T05:18:24.326Z,0
2016-02-13T05:19:24.376Z,0
2016-02-13T05:20:24.315Z,0
2016-02-13T05:21:24.335Z,0
2016-02-13T05:22:24.321Z,0
2016-02-13T05:23:24.324Z,0
2016-02-13T05:24:24.327Z,0
2016-02-13T05:25:24.314Z,0
2016-02-13T05:26:24.351Z,0
2016-02-13T05:27:24.322Z,0
2016-02-13T05:28:24.340Z,0
2016-02-13T05:29:24.314Z,0
2016-02-13T05:30:24.332Z,0
2016-02-13T05:31:24.320Z,0
2016-02-13T05:32:24.353Z,0
2016-02-13T05:33:24.310Z,0
2016-02-13T05:34:24.331Z,0
2016-02-13T05:35:24.303Z,0
2016-02-13T05:36:24.320Z,0
2016-02-13T05:37:24.308Z,0
2016-02-13T05:38:24.311Z,0
2016-02-13T05:39:24.329Z,0
2016-02-13T05:40:24.300Z,0
2016-02-13T05:41:24.303Z,0
2016-02-13T05:42:24.305Z,0
2016-02-13T05:43:24.309Z,0
2016-02-13T05:44:24.311Z,0
2016-02-13T05:45:24.314Z,0
2016-02-13T05:46:24.316Z,0
2016-02-13T05:47:24.303Z,0
2016-02-13T05:48:24.306Z,0
2016-02-13T05:49:24.294Z,0
2016-02-13T05:50:24.296Z,0
2016-02-13T05:51:24.299Z,0
2016-02-13T05:52:24.302Z,0
2016-02-13T05:53:24.305Z,0
2016-02-13T05:54:24.322Z,0
2016-02-13T05:55:24.296Z,0
2016-02-13T05:56:24.330Z,0
2016-02-13T05:57:24.285Z,0
2016-02-13T05:58:24.303Z,0
2016-02-13T05:59:24.275Z,0
2016-02-13T06:00:24.295Z,0
2016-02-13T06:01:24.283Z,0
2016-02-13T06:02:24.300Z,0
2016-02-13T06:03:24.288Z,0
2016-02-13T06:04:24.305Z,0
2016-02-13T06:05:24.294Z,0
2016-02-13T06:06:24.311Z,0
2016-02-13T06:07:24.283Z,0
2016-02-13T06:08:24.302Z,0
2016-02-13T06:09:24.274Z,0
2016-02-13T06:10:24.293Z,0
2016-02-13T06:11:24.279Z,0
2016-02-13T06:12:24.300Z,0
2016-02-13T06:13:24.272Z,0
2016-02-13T06:14:24.289Z,4
2016-02-13T06:15:24.277Z,4
2016-02-13T06:16:24.295Z,4
2016-02-13T06:17:24.283Z,4
2016-02-13T06:18:24.300Z,4
2016-02-13T06:19:24.303Z,4
2016-02-13T06:20:24.306Z,8
2016-02-13T06:21:24.277Z,4
2016-02-13T06:22:24.280Z,8
2016-02-13T06:23:24.299Z,12
2016-02-13T06:24:24.269Z,12
2016-02-13T06:25:24.288Z,8
2016-02-13T06:26:24.260Z,12
2016-02-13T06:27:24.278Z,16
2016-02-13T06:28:24.266Z,16
2016-02-13T06:29:24.268Z,20
2016-02-13T06:30:24.259Z,16
2016-02-13T06:31:24.277Z,24
2016-02-13T06:32:24.264Z,32
2016-02-13T06:33:24.266Z,32
2016-02-13T06:34:24.255Z,28
2016-02-13T06:35:24.288Z,24
2016-02-13T06:36:24.275Z,40
2016-02-13T06:37:24.262Z,52
2016-02-13T06:38:24.266Z,36
2016-02-13T06:39:24.254Z,32
2016-02-13T06:40:24.272Z,32
2016-02-13T06:41:24.259Z,52
2016-02-13T06:42:24.262Z,52
2016-02-13T06:43:24.248Z,64
2016-02-13T06:44:24.252Z,52
2016-02-13T06:45:24.254Z,56
2016-02-13T06:46:24.257Z,48
2016-02-13T06:47:24.246Z,52
2016-02-13T06:48:24.280Z,76
2016-02-13T06:49:24.267Z,68
2016-02-13T06:50:24.270Z,88
2016-02-13T06:51:24.241Z,124
2016-02-13T06:52:24.260Z,140
2016-02-13T06:53:24.262Z,124
2016-02-13T06:54:24.249Z,108
2016-02-13T06:55:24.252Z,96
2016-02-13T06:56:24.240Z,128
2016-02-13T06:57:24.258Z,136
2016-02-13T06:58:24.230Z,136
2016-02-13T06:59:24.233Z,148
2016-02-13T07:00:24.250Z,132
2016-02-13T07:01:24.269Z,124
2016-02-13T07:02:24.539Z,180
2016-02-13T07:03:24.229Z,216
2016-02-13T07:04:24.232Z,244
2016-02-13T07:05:24.234Z,244
2016-02-13T07:06:24.238Z,276
2016-02-13T07:07:24.241Z,340
2016-02-13T07:08:24.259Z,424
2016-02-13T07:09:24.230Z,380
2016-02-13T07:10:24.248Z,332
2016-02-13T07:11:24.220Z,336
2016-02-13T07:12:24.223Z,344
2016-02-13T07:13:24.227Z,364
2016-02-13T07:14:24.230Z,356
2016-02-13T07:15:24.233Z,392
2016-02-13T07:16:24.236Z,472
2016-02-13T07:17:24.223Z,544
2016-02-13T07:18:24.225Z,600
2016-02-13T07:19:24.212Z,668
2016-02-13T07:20:24.247Z,720
2016-02-13T07:21:24.218Z,800
2016-02-13T07:22:24.236Z,796
2016-02-13T07:23:24.223Z,808
2016-02-13T07:24:24.211Z,776
2016-02-13T07:25:24.229Z,808
2016-02-13T07:26:24.216Z,868
2016-02-13T07:27:24.234Z,884
2016-02-13T07:28:24.205Z,820
2016-02-13T07:29:24.225Z,732
2016-02-13T07:30:24.242Z,712
2016-02-13T07:31:24.216Z,768
2016-02-13T07:32:24.249Z,792
2016-02-13T07:33:24.209Z,836
2016-02-13T07:34:24.211Z,876
2016-02-13T07:35:24.231Z,948
2016-02-13T07:36:24.202Z,1148
2016-02-13T07:37:24.220Z,1240
2016-02-13T07:38:24.207Z,1388
2016-02-13T07:39:24.210Z,1772
2016-02-13T07:40:24.227Z,2116
2016-02-13T07:41:24.200Z,2056
2016-02-13T07:42:24.204Z,1972
2016-02-13T07:43:24.206Z,1992
2016-02-13T07:44:24.208Z,2168
2016-02-13T07:45:24.212Z,2100
2016-02-13T07:46:24.198Z,2236
2016-02-13T07:47:24.217Z,2300
2016-02-13T07:48:24.204Z,2216
2016-02-13T07:49:24.206Z,2284
2016-02-13T07:50:24.209Z,2432
2016-02-13T07:51:24.183Z,2356
2016-02-13T07:52:24.201Z,2376
2016-02-13T07:53:24.204Z,2580
2016-02-13T07:54:24.207Z,2508
2016-02-13T07:55:24.210Z,2400
2016-02-13T07:56:24.212Z,2672
2016-02-13T07:57:24.215Z,2856
2016-02-13T07:58:24.186Z,2808
2016-02-13T07:59:24.235Z,2412
2016-02-13T08:00:24.177Z,1992
2016-02-13T08:01:24.179Z,1904
2016-02-13T08:02:24.201Z,1748
2016-02-13T08:03:24.204Z,1480
2016-02-13T08:04:24.248Z,1324
2016-02-13T08:05:24.532Z,1404
2016-02-13T08:06:24.193Z,1412
2016-02-13T08:07:24.195Z,1556
2016-02-13T08:08:24.230Z,1716
2016-02-13T08:09:24.201Z,1580
2016-02-13T08:10:24.188Z,1396
2016-02-13T08:11:24.206Z,1272
2016-02-13T08:12:24.193Z,1416
2016-02-13T08:13:24.196Z,1884
2016-02-13T08:14:24.215Z,2072
2016-02-13T08:15:24.186Z,1976
2016-02-13T08:16:24.204Z,2040
2016-02-13T08:17:24.193Z,2344
2016-02-13T08:18:24.196Z,2368
2016-02-13T08:19:24.183Z,2272
2016-02-13T08:20:24.187Z,2280
2016-02-13T08:21:24.189Z,2448
2016-02-13T08:22:24.192Z,2420
2016-02-13T08:23:24.210Z,2304
2016-02-13T08:24:24.181Z,2448
2016-02-13T08:25:24.184Z,2568
2016-02-13T08:26:24.174Z,2568
2016-02-13T08:27:24.177Z,2588
2016-02-13T08:28:24.194Z,2548
2016-02-13T08:29:24.199Z,2540
2016-02-13T08:30:24.187Z,2512
2016-02-13T08:31:24.237Z,3196
2016-02-13T08:32:24.194Z,3412
2016-02-13T08:33:24.197Z,3932
2016-02-13T08:34:24.199Z,4500
2016-02-13T08:35:24.188Z,4832
2016-02-13T08:36:24.180Z,4956
2016-02-13T08:37:24.168Z,4816
2016-02-13T08:38:24.185Z,4188
2016-02-13T08:39:24.203Z,3612
2016-02-13T08:40:24.190Z,3552
2016-02-13T08:41:24.178Z,3636
2016-02-13T08:42:24.181Z,3652
2016-02-13T08:43:24.184Z,3536
2016-02-13T08:44:24.187Z,3384
2016-02-13T08:45:24.175Z,3184
2016-02-13T08:46:24.225Z,3016
2016-02-13T08:47:24.181Z,2884
2016-02-13T08:48:24.184Z,2796
2016-02-13T08:49:24.187Z,2984
2016-02-13T08:50:24.189Z,3316
2016-02-13T08:51:24.176Z,3384
2016-02-13T08:52:24.194Z,3380
2016-02-13T08:53:24.197Z,3464
2016-02-13T08:54:24.200Z,3564
2016-02-13T08:55:24.189Z,3680
2016-02-13T08:56:24.191Z,3852
2016-02-13T08:57:24.179Z,4060
2016-02-13T08:58:24.181Z,4132
2016-02-13T08:59:24.185Z,4184
2016-02-13T09:00:24.171Z,4220
2016-02-13T09:01:24.174Z,4376
2016-02-13T09:02:24.176Z,4348
2016-02-13T09:03:24.198Z,4384
2016-02-13T09:04:24.202Z,4600
2016-02-13T09:05:24.205Z,4796
2016-02-13T09:06:24.176Z,4840
2016-02-13T09:07:24.179Z,4732
2016-02-13T09:08:24.181Z,4952
2016-02-13T09:09:24.184Z,5240
2016-02-13T09:10:24.187Z,5548
2016-02-13T09:11:24.190Z,5240
2016-02-13T09:12:24.192Z,4772
2016-02-13T09:13:24.181Z,4864
2016-02-13T09:14:24.198Z,5060
2016-02-13T09:15:24.187Z,5636
2016-02-13T09:16:24.189Z,6084
2016-02-13T09:17:24.192Z,6276
2016-02-13T09:18:24.194Z,6524
2016-02-13T09:19:24.197Z,5016
2016-02-13T09:20:24.200Z,3960
2016-02-13T09:21:24.187Z,3368
2016-02-13T09:22:24.190Z,2984
2016-02-13T09:23:24.208Z,2844
2016-02-13T09:24:24.211Z,2808
2016-02-13T09:25:24.213Z,2916
2016-02-13T09:26:24.200Z,3252
2016-02-13T09:27:24.187Z,3424
2016-02-13T09:28:24.190Z,3428
2016-02-13T09:29:24.208Z,3508
2016-02-13T09:30:24.196Z,3788
2016-02-13T09:31:24.198Z,4116
2016-02-13T09:32:24.204Z,4264
2016-02-13T09:33:24.193Z,4340
2016-02-13T09:34:24.211Z,4384
2016-02-13T09:35:24.198Z,4424
2016-02-13T09:36:24.185Z,4636
2016-02-13T09:37:24.204Z,4808
2016-02-13T09:38:24.206Z,4956
2016-02-13T09:39:24.209Z,5084
2016-02-13T09:40:24.212Z,5084
2016-02-13T09:41:24.198Z,5020
2016-02-13T09:42:24.201Z,5008
2016-02-13T09:43:24.204Z,4920
2016-02-13T09:44:24.206Z,4860
2016-02-13T09:45:24.226Z,4856
2016-02-13T09:46:24.212Z,4896
2016-02-13T09:47:24.246Z,4936
2016-02-13T09:48:24.219Z,4936
2016-02-13T09:49:24.222Z,4932
2016-02-13T09:50:24.052Z,4736
2016-02-13T09:51:24.212Z,4444
2016-02-13T09:52:24.232Z,4312
2016-02-13T09:53:24.234Z,4304
2016-02-13T09:54:24.237Z,4420
2016-02-13T09:55:24.223Z,4564
2016-02-13T09:56:24.273Z,4656
2016-02-13T09:57:24.213Z,4736
2016-02-13T09:58:24.278Z,4752
2016-02-13T09:59:24.219Z,4812
2016-02-13T10:00:24.223Z,4904
2016-02-13T10:01:24.226Z,5104
2016-02-13T10:02:24.233Z,5276
2016-02-13T10:03:24.236Z,5292
2016-02-13T10:04:24.238Z,5240
2016-02-13T10:05:24.241Z,5116
2016-02-13T10:06:24.228Z,4984
2016-02-13T10:07:24.247Z,4864
2016-02-13T10:08:24.219Z,4876
2016-02-13T10:09:24.253Z,4640
2016-02-13T10:10:24.225Z,4372
2016-02-13T10:11:24.243Z,4252
2016-02-13T10:12:24.246Z,4128
2016-02-13T10:13:24.263Z,4068
2016-02-13T10:14:24.235Z,3764
2016-02-13T10:15:24.238Z,3644
2016-02-13T10:16:24.272Z,3940
2016-02-13T10:17:24.275Z,3992
2016-02-13T10:18:24.247Z,3904
2016-02-13T10:19:24.250Z,3856
2016-02-13T10:20:24.253Z,3848
2016-02-13T10:21:24.271Z,4048
2016-02-13T10:22:24.257Z,4392
2016-02-13T10:23:24.245Z,4180
2016-02-13T10:24:24.263Z,4060
2016-02-13T10:25:24.251Z,4160
2016-02-13T10:26:24.285Z,4444
2016-02-13T10:27:24.273Z,4696
2016-02-13T10:28:24.275Z,4704
2016-02-13T10:29:24.247Z,5272
2016-02-13T10:30:24.264Z,5772
2016-02-13T10:31:24.283Z,5980
2016-02-13T10:32:24.116Z,6304
2016-02-13T10:33:24.259Z,6512
2016-02-13T10:34:24.277Z,5280
2016-02-13T10:35:24.265Z,5456
2016-02-13T10:36:24.299Z,5268
2016-02-13T10:37:24.270Z,4768
2016-02-13T10:38:24.304Z,4380
2016-02-13T10:39:24.290Z,4072
2016-02-13T10:40:24.278Z,3724
2016-02-13T10:41:24.296Z,3720
2016-02-13T10:42:24.283Z,3708
2016-02-13T10:43:24.289Z,3988
2016-02-13T10:44:24.291Z,4400
2016-02-13T10:45:24.294Z,4724
2016-02-13T10:46:24.297Z,5156
2016-02-13T10:47:24.284Z,5400
2016-02-13T10:48:24.317Z,5112
2016-02-13T10:49:24.289Z,5464
2016-02-13T10:50:24.293Z,5220
2016-02-13T10:51:24.311Z,5352
2016-02-13T10:52:24.299Z,5252
2016-02-13T10:53:24.301Z,5144
2016-02-13T10:54:24.304Z,5080
2016-02-13T10:55:24.307Z,5076
2016-02-13T10:56:24.294Z,5180
2016-02-13T10:57:24.329Z,5224
2016-02-13T10:58:24.300Z,5108
2016-02-13T10:59:24.335Z,4744
2016-02-13T11:00:24.305Z,4752
2016-02-13T11:01:24.323Z,4864
2016-02-13T11:02:24.314Z,5220
2016-02-13T11:03:24.318Z,4160
2016-02-13T11:04:24.336Z,3600
2016-02-13T11:05:24.309Z,3328
2016-02-13T11:06:24.326Z,3140
2016-02-13T11:07:24.328Z,3156
2016-02-13T11:08:24.348Z,2680
2016-02-13T11:09:24.334Z,2416
2016-02-13T11:10:24.322Z,2736
2016-02-13T11:11:24.355Z,3100
2016-02-13T11:12:24.329Z,2612
2016-02-13T11:13:24.346Z,2616
2016-02-13T11:14:24.334Z,2404
2016-02-13T11:15:24.337Z,2140
2016-02-13T11:16:24.355Z,1756
2016-02-13T11:17:24.342Z,1624
2016-02-13T11:18:24.359Z,2088
2016-02-13T11:19:24.362Z,2528
2016-02-13T11:20:24.350Z,2728
2016-02-13T11:21:24.339Z,2556
2016-02-13T11:22:24.341Z,2660
2016-02-13T11:23:24.360Z,2428
2016-02-13T11:24:24.347Z,2304
2016-02-13T11:25:24.365Z,2984
2016-02-13T11:26:24.368Z,3180
2016-02-13T11:27:24.355Z,3104
2016-02-13T11:28:24.373Z,3548
2016-02-13T11:29:24.360Z,3440
2016-02-13T11:30:24.364Z,3052
2016-02-13T11:31:24.382Z,2988
2016-02-13T11:32:24.213Z,3168
2016-02-13T11:33:24.390Z,3156
2016-02-13T11:34:24.376Z,3192
2016-02-13T11:35:24.363Z,3016
2016-02-13T11:36:24.382Z,3256
2016-02-13T11:37:24.368Z,3144
2016-02-13T11:38:24.372Z,2944
2016-02-13T11:39:24.375Z,2928
2016-02-13T11:40:24.377Z,2988
2016-02-13T11:41:24.380Z,3240
2016-02-13T11:42:24.415Z,3496
2016-02-13T11:43:24.386Z,3572
2016-02-13T11:44:24.389Z,3692
2016-02-13T11:45:24.392Z,3864
2016-02-13T11:46:24.394Z,4000
2016-02-13T11:47:24.383Z,4228
2016-02-13T11:48:24.401Z,4120
2016-02-13T11:49:24.389Z,3936
2016-02-13T11:50:24.406Z,3768
2016-02-13T11:51:24.409Z,3552
2016-02-13T11:52:24.412Z,3532
2016-02-13T11:53:24.430Z,3536
2016-02-13T11:54:24.402Z,3432
2016-02-13T11:55:24.405Z,3164
2016-02-13T11:56:24.424Z,3108
2016-02-13T11:57:24.412Z,3176
2016-02-13T11:58:24.398Z,3128
2016-02-13T11:59:24.418Z,3076
2016-02-13T12:00:24.405Z,3092
2016-02-13T12:01:24.408Z,3228
2016-02-13T12:02:24.410Z,3180
2016-02-13T12:03:24.399Z,3100
2016-02-13T12:04:24.418Z,3012
2016-02-13T12:05:24.409Z,2932
2016-02-13T12:06:24.412Z,3016
2016-02-13T12:07:24.415Z,3116
2016-02-13T12:08:24.433Z,3140
2016-02-13T12:09:24.420Z,3136
2016-02-13T12:10:24.423Z,3156
2016-02-13T12:11:24.925Z,3148
2016-02-13T12:12:24.428Z,3052
2016-02-13T12:13:24.260Z,2908
2016-02-13T12:14:24.434Z,2840
2016-02-13T12:15:24.437Z,2764
2016-02-13T12:16:24.426Z,2684
2016-02-13T12:17:24.428Z,2740
2016-02-13T12:18:24.431Z,2856
2016-02-13T12:19:24.434Z,2964
2016-02-13T12:20:24.436Z,3156
2016-02-13T12:21:24.455Z,3380
2016-02-13T12:22:24.459Z,3504
2016-02-13T12:23:24.445Z,3388
2016-02-13T12:24:24.430Z,3180
2016-02-13T12:25:24.449Z,3120
2016-02-13T12:26:24.451Z,3264
2016-02-13T12:27:24.454Z,3472
2016-02-13T12:28:24.441Z,3612
2016-02-13T12:29:24.444Z,3604
2016-02-13T12:30:24.291Z,3516
2016-02-13T12:31:24.449Z,3396
2016-02-13T12:32:24.437Z,3284
2016-02-13T12:33:24.457Z,3180
2016-02-13T12:34:24.460Z,3028
2016-02-13T12:35:24.462Z,2776
2016-02-13T12:36:24.449Z,2520
2016-02-13T12:37:24.483Z,2356
2016-02-13T12:38:24.455Z,2308
2016-02-13T12:39:24.457Z,2188
2016-02-13T12:40:24.460Z,2040
2016-02-13T12:41:24.462Z,1996
2016-02-13T12:42:24.450Z,2068
2016-02-13T12:43:24.454Z,2180
2016-02-13T12:44:24.472Z,2188
2016-02-13T12:45:24.460Z,2060
2016-02-13T12:46:24.463Z,1976
2016-02-13T12:47:24.465Z,1880
2016-02-13T12:48:24.467Z,1828
2016-02-13T12:49:24.440Z,1824
2016-02-13T12:50:24.443Z,1768
2016-02-13T12:51:24.448Z,1728
2016-02-13T12:52:24.436Z,1648
2016-02-13T12:53:24.455Z,1536
2016-02-13T12:54:24.389Z,1488
2016-02-13T12:55:24.402Z,1508
2016-02-13T12:56:24.385Z,1528
2016-02-13T12:57:24.381Z,1516
2016-02-13T12:58:24.394Z,1452
2016-02-13T12:59:24.364Z,1368
2016-02-13T13:00:24.381Z,1336
2016-02-13T13:01:24.382Z,1356
2016-02-13T13:02:24.383Z,1388
2016-02-13T13:03:24.383Z,1412
2016-02-13T13:04:24.384Z,1492
2016-02-13T13:05:24.369Z,1608
2016-02-13T13:06:24.388Z,1788
2016-02-13T13:07:24.383Z,1876
2016-02-13T13:08:24.386Z,2016
2016-02-13T13:09:24.372Z,2036
2016-02-13T13:10:24.374Z,2136
2016-02-13T13:11:24.376Z,2024
2016-02-13T13:12:24.378Z,1952
2016-02-13T13:13:24.381Z,1776
2016-02-13T13:14:24.383Z,1600
2016-02-13T13:15:24.386Z,1508
2016-02-13T13:16:24.389Z,1320
2016-02-13T13:17:24.391Z,1288
2016-02-13T13:18:24.394Z,1384
2016-02-13T13:19:24.397Z,1512
2016-02-13T13:20:24.385Z,1604
2016-02-13T13:21:24.371Z,1688
2016-02-13T13:22:24.390Z,1744
2016-02-13T13:23:24.377Z,1724
2016-02-13T13:24:24.379Z,1760
2016-02-13T13:25:24.382Z,2108
2016-02-13T13:26:24.386Z,2864
2016-02-13T13:27:24.388Z,3964
2016-02-13T13:28:24.422Z,4664
2016-02-13T13:29:24.224Z,4816
2016-02-13T13:30:24.383Z,4688
2016-02-13T13:31:24.386Z,4548
2016-02-13T13:32:24.389Z,4880
2016-02-13T13:33:24.423Z,5240
2016-02-13T13:34:24.397Z,5300
2016-02-13T13:35:24.400Z,5044
2016-02-13T13:36:24.403Z,4704
2016-02-13T13:37:24.405Z,4460
2016-02-13T13:38:24.410Z,3928
2016-02-13T13:39:24.413Z,3484
2016-02-13T13:40:24.400Z,3616
2016-02-13T13:41:24.420Z,3540
2016-02-13T13:42:24.409Z,3380
2016-02-13T13:43:24.411Z,3280
2016-02-13T13:44:24.398Z,2932
2016-02-13T13:45:24.417Z,2952
2016-02-13T13:46:24.403Z,3000
2016-02-13T13:47:24.390Z,2556
2016-02-13T13:48:24.409Z,2712
2016-02-13T13:49:24.395Z,2664
2016-02-13T13:50:24.414Z,2812
2016-02-13T13:51:24.433Z,2936
2016-02-13T13:52:24.419Z,2976
2016-02-13T13:53:24.422Z,2924
2016-02-13T13:54:24.409Z,2768
2016-02-13T13:55:24.411Z,2868
2016-02-13T13:56:24.431Z,3064
2016-02-13T13:57:24.417Z,2972
2016-02-13T13:58:24.404Z,2976
2016-02-13T13:59:24.408Z,3016
2016-02-13T14:00:24.425Z,3204